createdAt,value
2023-08-15T00:01:08.455Z,14.00
2023-08-15T00:03:36.052Z,14.00
2023-08-15T00:06:03.815Z,16.60
2023-08-15T00:08:31.343Z,14.00
2023-08-15T00:10:58.997Z,14.00
2023-08-15T00:13:26.547Z,14.20
2023-08-15T00:15:54.558Z,15.20
2023-08-15T00:18:22.401Z,14.10
2023-08-15T00:20:50.122Z,14.20
2023-08-15T00:23:17.958Z,14.20
2023-08-15T00:25:45.565Z,14.20
2023-08-15T00:28:13.199Z,14.20
2023-08-15T00:30:40.847Z,14.10
2023-08-15T00:33:08.625Z,14.10
2023-08-15T00:35:36.234Z,14.20
2023-08-15T00:38:04.801Z,14.10
2023-08-15T00:40:32.514Z,12.40
2023-08-15T00:43:00.127Z,14.10
2023-08-15T00:45:28.027Z,12.70
2023-08-15T00:47:55.798Z,14.10
2023-08-15T00:50:24.481Z,13.40
2023-08-15T00:52:52.650Z,14.10
2023-08-15T00:55:20.553Z,14.10
2023-08-15T00:57:48.576Z,14.10
2023-08-15T01:00:16.972Z,14.10
2023-08-15T01:02:44.816Z,14.10
2023-08-15T01:05:17.210Z,14.10
2023-08-15T01:07:45.402Z,14.00
2023-08-15T01:10:13.028Z,14.00
2023-08-15T01:13:06.431Z,14.70
2023-08-15T01:15:39.194Z,13.90
2023-08-15T01:18:37.687Z,13.90
2023-08-15T01:21:07.566Z,13.80
2023-08-15T01:23:45.726Z,13.80
2023-08-15T01:26:13.432Z,13.80
2023-08-15T01:28:41.058Z,13.70
2023-08-15T01:31:29.402Z,13.70
2023-08-15T01:34:03.130Z,11.20
2023-08-15T01:36:34.528Z,13.10
2023-08-15T01:39:05.517Z,13.60
2023-08-15T01:41:39.819Z,13.60
2023-08-15T01:44:10.393Z,13.60
2023-08-15T01:46:38.257Z,13.10
2023-08-15T01:49:05.878Z,13.60
2023-08-15T01:51:33.464Z,12.10
2023-08-15T01:54:00.998Z,13.50
2023-08-15T01:56:28.563Z,13.40
2023-08-15T01:58:56.164Z,13.40
2023-08-15T02:01:23.839Z,13.40
2023-08-15T02:03:51.529Z,13.30
2023-08-15T02:06:19.081Z,13.30
2023-08-15T02:08:46.985Z,15.70
2023-08-15T02:11:14.642Z,13.30
2023-08-15T02:13:42.457Z,12.10
2023-08-15T02:16:10.073Z,13.20
2023-08-15T02:18:42.123Z,13.20
2023-08-15T02:21:11.212Z,13.20
2023-08-15T02:23:38.865Z,13.20
2023-08-15T02:26:06.484Z,15.90
2023-08-15T02:28:34.106Z,13.20
2023-08-15T02:31:05.904Z,13.20
2023-08-15T02:33:34.116Z,11.70
2023-08-15T02:36:09.086Z,13.10
2023-08-15T02:38:38.769Z,13.10
2023-08-15T02:41:07.321Z,13.10
2023-08-15T02:43:35.017Z,13.20
2023-08-15T02:46:02.874Z,13.10
2023-08-15T02:48:30.497Z,13.20
2023-08-15T02:50:58.100Z,13.10
2023-08-15T02:53:26.127Z,11.80
2023-08-15T02:55:53.758Z,13.10
2023-08-15T02:58:21.535Z,13.00
2023-08-15T03:00:49.178Z,13.00
2023-08-15T03:03:17.106Z,13.00
2023-08-15T03:05:44.803Z,13.00
2023-08-15T03:08:12.390Z,13.00
2023-08-15T03:10:40.956Z,13.00
2023-08-15T03:13:08.649Z,12.90
2023-08-15T03:15:37.469Z,12.90
2023-08-15T03:18:05.433Z,13.90
2023-08-15T03:20:33.007Z,12.80
2023-08-15T03:23:03.917Z,12.80
2023-08-15T03:25:31.710Z,12.70
2023-08-15T03:27:59.494Z,12.70
2023-08-15T03:32:55.855Z,12.70
2023-08-15T07:08:04.678Z,15.40
2023-08-15T07:10:33.717Z,15.90
2023-08-15T07:35:16.146Z,16.30
2023-08-15T07:37:44.147Z,18.30
2023-08-15T07:40:21.096Z,18.60
2023-08-15T07:42:54.267Z,18.90
2023-08-15T07:45:22.961Z,19.00
2023-08-15T07:47:53.532Z,19.20
2023-08-15T07:50:28.898Z,19.30
2023-08-15T07:52:59.476Z,19.20
2023-08-15T07:55:34.090Z,19.10
2023-08-15T07:58:01.926Z,19.20
2023-08-15T08:00:30.220Z,19.30
2023-08-15T08:03:01.073Z,19.60
2023-08-15T08:05:32.749Z,19.80
2023-08-15T08:08:02.961Z,20.00
2023-08-15T08:10:30.573Z,20.20
2023-08-15T08:13:00.902Z,20.50
2023-08-15T08:15:29.365Z,20.90
2023-08-15T08:17:56.898Z,21.10
2023-08-15T08:20:24.647Z,21.10
2023-08-15T08:22:52.590Z,20.90
2023-08-15T08:25:22.818Z,20.80
2023-08-15T08:27:51.027Z,20.70
2023-08-15T08:30:24.838Z,20.70
2023-08-15T08:32:54.063Z,20.50
2023-08-15T08:35:21.655Z,20.40
2023-08-15T08:37:49.370Z,20.40
2023-08-15T08:40:18.598Z,20.30
2023-08-15T08:42:47.032Z,20.30
2023-08-15T08:45:15.205Z,20.50
2023-08-15T08:47:45.009Z,19.90
2023-08-15T08:50:13.052Z,20.10
2023-08-15T08:52:50.183Z,20.20
2023-08-15T08:55:22.638Z,20.20
2023-08-15T08:57:56.090Z,20.10
2023-08-15T09:00:30.251Z,20.20
2023-08-15T09:02:58.747Z,20.30
2023-08-15T09:05:27.955Z,20.40
2023-08-15T09:07:56.054Z,20.80
2023-08-15T09:10:24.240Z,21.30
2023-08-15T09:12:57.389Z,21.50
2023-08-15T09:15:25.484Z,21.50
2023-08-15T09:18:02.430Z,21.80
2023-08-15T09:20:30.341Z,22.40
2023-08-15T09:22:59.416Z,23.10
2023-08-15T09:25:28.581Z,23.70
2023-08-15T09:27:56.188Z,24.40
2023-08-15T09:30:23.796Z,24.70
2023-08-15T09:32:51.479Z,24.70
2023-08-15T09:35:19.979Z,24.60
2023-08-15T09:37:49.431Z,22.70
2023-08-15T09:40:19.119Z,23.70
2023-08-15T09:42:47.107Z,23.20
2023-08-15T09:45:15.809Z,22.80
2023-08-15T09:47:44.755Z,22.40
2023-08-15T09:50:14.366Z,22.00
2023-08-15T09:52:44.385Z,21.90
2023-08-15T09:55:13.549Z,22.00
2023-08-15T09:57:42.950Z,22.20
2023-08-15T10:00:18.838Z,22.60
2023-08-15T10:03:07.721Z,23.30
2023-08-15T10:05:37.524Z,24.10
2023-08-15T10:08:05.668Z,25.00
2023-08-15T10:10:35.938Z,25.40
2023-08-15T10:13:05.199Z,25.40
2023-08-15T10:15:33.574Z,25.50
2023-08-15T10:18:02.301Z,25.80
2023-08-15T10:20:36.524Z,26.20
2023-08-15T10:23:09.955Z,26.60
2023-08-15T10:25:40.294Z,26.90
2023-08-15T10:28:13.208Z,26.90
2023-08-15T10:30:48.572Z,27.10
2023-08-15T10:33:25.240Z,27.10
2023-08-15T10:35:55.941Z,26.80
2023-08-15T10:41:20.566Z,26.30
2023-08-15T10:44:00.289Z,25.90
2023-08-15T10:46:31.019Z,25.80
2023-08-15T10:49:12.622Z,25.90
2023-08-15T10:51:42.390Z,25.90
2023-08-15T10:54:12.331Z,25.80
2023-08-15T10:56:41.817Z,25.80
2023-08-15T10:59:09.877Z,26.00
2023-08-15T11:01:39.100Z,26.00
2023-08-15T11:04:09.497Z,25.80
2023-08-15T11:06:48.214Z,25.20
2023-08-15T11:09:17.068Z,24.50
2023-08-15T11:11:48.084Z,23.70
2023-08-15T11:14:20.114Z,23.10
2023-08-15T11:16:49.336Z,22.60
2023-08-15T11:19:17.902Z,22.10
2023-08-15T11:21:45.921Z,21.80
2023-08-15T11:24:13.686Z,21.50
2023-08-15T11:26:41.941Z,21.40
2023-08-15T11:29:12.009Z,21.20
2023-08-15T11:31:40.035Z,21.10
2023-08-15T11:34:09.495Z,21.10
2023-08-15T11:36:37.713Z,21.10
2023-08-15T11:39:05.517Z,21.10
2023-08-15T11:41:36.211Z,21.10
2023-08-15T11:44:05.268Z,21.10
2023-08-15T11:46:54.038Z,21.10
2023-08-15T11:49:23.887Z,21.10
2023-08-15T11:51:52.270Z,21.10
2023-08-15T11:54:26.000Z,21.00
2023-08-15T11:56:55.371Z,21.10
2023-08-15T11:59:24.667Z,21.10
2023-08-15T12:02:27.599Z,21.20
2023-08-15T12:04:55.371Z,21.30
2023-08-15T12:07:23.181Z,21.40
2023-08-15T12:09:51.034Z,21.70
2023-08-15T12:12:20.830Z,21.90
2023-08-15T12:14:51.544Z,21.90
2023-08-15T12:17:19.413Z,21.80
2023-08-15T12:19:47.014Z,21.80
2023-08-15T12:22:14.660Z,22.00
2023-08-15T12:24:42.202Z,22.30
2023-08-15T12:27:09.838Z,22.60
2023-08-15T12:30:10.667Z,22.80
2023-08-15T12:32:25.579Z,23.20
2023-08-15T12:34:53.222Z,22.90
2023-08-15T12:37:20.864Z,22.90
2023-08-15T12:39:48.531Z,22.90
2023-08-15T12:42:17.482Z,22.70
2023-08-15T12:44:45.987Z,22.60
2023-08-15T12:47:13.484Z,22.70
2023-08-15T12:49:41.069Z,22.70
2023-08-15T12:52:08.821Z,22.80
2023-08-15T12:54:37.035Z,22.90
2023-08-15T12:57:04.724Z,23.20
2023-08-15T12:59:32.342Z,23.40
2023-08-15T13:02:00.000Z,23.60
2023-08-15T13:04:27.627Z,23.70
2023-08-15T13:06:55.274Z,23.70
2023-08-15T13:09:22.863Z,23.70
2023-08-15T13:11:50.660Z,23.60
2023-08-15T13:14:20.622Z,23.40
2023-08-15T13:16:50.444Z,23.20
2023-08-15T13:19:18.214Z,22.70
2023-08-15T13:21:45.952Z,22.70
2023-08-15T13:24:13.506Z,22.50
2023-08-15T13:26:41.179Z,22.20
2023-08-15T13:29:08.777Z,22.10
2023-08-15T13:31:36.518Z,22.00
2023-08-15T13:34:04.326Z,19.90
2023-08-15T13:36:31.984Z,21.60
2023-08-15T13:38:59.652Z,21.50
2023-08-15T13:41:27.548Z,21.40
2023-08-15T13:43:55.123Z,21.20
2023-08-15T13:46:22.705Z,21.10
2023-08-15T13:48:50.382Z,21.10
2023-08-15T13:51:20.958Z,21.10
2023-08-15T13:53:49.550Z,21.20
2023-08-15T13:56:17.572Z,21.00
2023-08-15T13:58:45.329Z,21.30
2023-08-15T14:01:13.016Z,21.30
2023-08-15T14:03:40.819Z,21.40
2023-08-15T14:06:08.730Z,21.40
2023-08-15T14:08:36.371Z,21.50
2023-08-15T14:11:05.133Z,21.70
2023-08-15T14:13:34.020Z,21.80
2023-08-15T14:16:04.451Z,21.90
2023-08-15T14:18:33.648Z,22.00
2023-08-15T14:21:01.207Z,21.90
2023-08-15T14:23:30.301Z,21.90
2023-08-15T14:25:58.274Z,21.70
2023-08-15T14:28:25.858Z,21.50
2023-08-15T14:30:53.548Z,21.40
2023-08-15T14:33:21.253Z,21.30
2023-08-15T14:35:50.316Z,21.10
2023-08-15T14:38:17.910Z,21.00
2023-08-15T14:40:45.547Z,20.90
2023-08-15T14:43:13.206Z,21.00
2023-08-15T14:45:40.967Z,21.20
2023-08-15T14:48:08.583Z,21.30
2023-08-15T14:50:36.830Z,21.30
2023-08-15T14:53:04.601Z,21.40
2023-08-15T14:55:33.270Z,21.30
2023-08-15T14:58:01.187Z,21.30
2023-08-15T15:00:28.733Z,21.10
2023-08-15T15:02:56.383Z,21.50
2023-08-15T15:05:24.052Z,21.50
2023-08-15T15:07:51.637Z,20.10
2023-08-15T15:10:19.275Z,21.50
2023-08-15T15:12:48.445Z,21.60
2023-08-15T15:15:16.006Z,21.80
2023-08-15T15:17:43.791Z,22.00
2023-08-15T15:20:12.048Z,22.00
2023-08-15T15:22:39.657Z,22.10
2023-08-15T15:25:07.864Z,22.10
2023-08-15T15:27:35.725Z,22.00
2023-08-15T15:30:04.037Z,22.00
2023-08-15T15:32:32.102Z,21.80
2023-08-15T15:34:59.716Z,21.70
2023-08-15T15:37:27.400Z,21.60
2023-08-15T15:39:54.934Z,21.50
2023-08-15T15:42:22.847Z,21.40
2023-08-15T15:44:50.694Z,21.40
2023-08-15T15:47:18.320Z,21.40
2023-08-15T15:49:45.828Z,21.40
2023-08-15T15:52:13.484Z,21.30
2023-08-15T15:54:41.134Z,21.30
2023-08-15T15:57:08.871Z,21.20
2023-08-15T15:59:36.458Z,21.20
2023-08-15T16:02:04.053Z,21.00
2023-08-15T16:04:31.773Z,20.90
2023-08-15T16:06:59.358Z,20.90
2023-08-15T16:09:26.966Z,21.00
2023-08-15T16:11:54.492Z,20.90
2023-08-15T16:14:22.307Z,20.90
2023-08-15T16:16:50.190Z,20.90
2023-08-15T16:19:17.858Z,20.80
2023-08-15T16:21:45.369Z,20.70
2023-08-15T16:24:12.902Z,20.70
2023-08-15T16:26:40.484Z,20.60
2023-08-15T16:29:08.330Z,20.60
2023-08-15T16:31:35.909Z,20.50
2023-08-15T16:34:03.838Z,20.50
2023-08-15T16:36:31.509Z,20.40
2023-08-15T16:38:59.233Z,20.20
2023-08-15T16:41:26.803Z,20.10
2023-08-15T16:43:55.972Z,19.70
2023-08-15T16:46:24.188Z,19.70
2023-08-15T16:48:51.976Z,19.70
2023-08-15T16:51:19.605Z,19.60
2023-08-15T16:53:47.237Z,19.60
2023-08-15T16:56:15.746Z,19.70
2023-08-15T16:58:45.524Z,19.70
2023-08-15T17:01:14.056Z,19.80
2023-08-15T17:03:41.883Z,19.80
2023-08-15T17:06:09.596Z,19.80
2023-08-15T17:08:37.181Z,19.80
2023-08-15T17:11:06.027Z,19.70
2023-08-15T17:13:33.599Z,20.80
2023-08-15T17:16:01.292Z,19.70
2023-08-15T17:18:29.007Z,19.60
2023-08-15T17:20:56.700Z,19.60
2023-08-15T17:23:24.752Z,19.50
2023-08-15T17:25:52.387Z,19.50
2023-08-15T17:28:19.981Z,19.50
2023-08-15T17:30:47.696Z,19.50
2023-08-15T17:33:15.407Z,19.50
2023-08-15T17:35:44.524Z,19.60
2023-08-15T17:38:12.259Z,19.50
2023-08-15T17:40:39.945Z,19.40
2023-08-15T17:43:07.704Z,19.40
2023-08-15T17:45:39.646Z,19.30
2023-08-15T17:48:07.419Z,19.20
2023-08-15T17:50:35.535Z,19.10
2023-08-15T17:53:03.373Z,19.00
2023-08-15T17:55:31.029Z,18.90
2023-08-15T17:57:58.658Z,18.80
2023-08-15T18:00:27.788Z,18.80
2023-08-15T18:02:58.566Z,18.80
2023-08-15T18:05:27.356Z,18.80
2023-08-15T18:07:54.905Z,19.50
2023-08-15T18:10:22.637Z,18.80
2023-08-15T18:12:50.235Z,18.80
2023-08-15T18:15:17.839Z,18.80
2023-08-15T18:17:46.646Z,18.80
2023-08-15T18:20:14.435Z,18.80
2023-08-15T18:22:42.878Z,18.60
2023-08-15T18:25:10.447Z,18.80
2023-08-15T18:27:38.074Z,18.80
2023-08-15T18:30:06.233Z,18.70
2023-08-15T18:32:33.923Z,18.70
2023-08-15T18:35:01.733Z,18.80
2023-08-15T18:37:29.468Z,18.70
2023-08-15T18:39:57.077Z,18.70
2023-08-15T18:42:24.927Z,18.70
2023-08-15T18:44:52.495Z,18.60
2023-08-15T18:47:20.123Z,18.50
2023-08-15T18:49:47.753Z,18.50
2023-08-15T18:52:18.815Z,18.40
2023-08-15T18:54:46.439Z,18.40
2023-08-15T18:57:14.052Z,18.30
2023-08-15T18:59:41.729Z,18.30
2023-08-15T19:02:09.549Z,18.20
2023-08-15T19:04:37.164Z,18.20
2023-08-15T19:07:05.327Z,18.10
2023-08-15T19:09:32.990Z,18.10
2023-08-15T19:12:01.509Z,18.00
2023-08-15T19:14:30.883Z,17.90
2023-08-15T19:17:03.697Z,17.90
2023-08-15T19:19:31.438Z,17.80
2023-08-15T19:21:58.956Z,17.80
2023-08-15T19:24:26.519Z,17.70
2023-08-15T19:26:55.761Z,17.60
2023-08-15T19:29:23.418Z,17.60
2023-08-15T19:31:51.082Z,17.50
2023-08-15T19:34:19.647Z,17.40
2023-08-15T19:36:49.890Z,17.40
2023-08-15T19:39:19.115Z,17.30
2023-08-15T19:41:51.588Z,17.30
2023-08-15T19:44:21.295Z,17.00
2023-08-15T19:46:55.716Z,17.20
2023-08-15T19:49:25.101Z,16.20
2023-08-15T19:51:52.618Z,17.10
2023-08-15T19:54:20.159Z,17.10
2023-08-15T19:56:47.731Z,17.00
2023-08-15T19:59:15.286Z,17.00
2023-08-15T20:01:43.094Z,16.90
2023-08-15T20:04:10.902Z,16.80
2023-08-15T20:06:39.048Z,16.80
2023-08-15T20:09:06.703Z,16.70
2023-08-15T20:11:34.339Z,16.60
2023-08-15T20:14:01.832Z,16.50
2023-08-15T20:16:29.429Z,17.30
2023-08-15T20:18:57.156Z,16.40
2023-08-15T20:21:24.845Z,16.30
2023-08-15T20:23:52.412Z,16.20
2023-08-15T20:26:20.000Z,16.10
2023-08-15T20:28:47.601Z,16.00
2023-08-15T20:31:15.501Z,16.00
2023-08-15T20:33:43.131Z,15.90
2023-08-15T20:36:14.502Z,15.80
2023-08-15T20:38:42.207Z,15.80
2023-08-15T20:41:09.894Z,15.70
2023-08-15T20:43:37.509Z,15.60
2023-08-15T20:46:05.098Z,15.50
2023-08-15T20:48:32.745Z,15.50
2023-08-15T20:51:00.271Z,15.40
2023-08-15T20:53:27.948Z,15.30
2023-08-15T20:55:55.625Z,15.30
2023-08-15T20:58:23.337Z,15.20
2023-08-15T21:00:51.757Z,15.10
2023-08-15T21:03:19.456Z,15.10
2023-08-15T21:05:47.392Z,15.00
2023-08-15T21:08:15.049Z,13.20
2023-08-15T21:10:42.691Z,14.90
2023-08-15T21:13:10.253Z,14.80
2023-08-15T21:15:37.857Z,14.80
2023-08-15T21:18:05.601Z,14.70
2023-08-15T21:20:33.203Z,14.70
2023-08-15T21:23:00.846Z,14.60
2023-08-15T21:25:28.468Z,14.60
2023-08-15T21:27:57.194Z,14.60
2023-08-15T21:30:24.827Z,14.60
2023-08-15T21:32:52.424Z,14.50
2023-08-15T21:35:20.071Z,14.50
2023-08-15T21:37:47.678Z,14.40
2023-08-15T21:40:15.405Z,14.40
2023-08-15T21:42:43.182Z,14.50
2023-08-15T21:45:10.990Z,14.30
2023-08-15T21:47:38.656Z,14.30
2023-08-15T21:50:08.075Z,14.20
2023-08-15T21:52:35.708Z,14.20
2023-08-15T21:55:03.395Z,14.10
2023-08-15T21:57:30.900Z,14.10
2023-08-15T21:59:58.478Z,14.00
2023-08-15T22:02:26.043Z,14.00
2023-08-15T22:04:53.612Z,14.00
2023-08-15T22:07:21.551Z,13.90
2023-08-15T22:09:49.518Z,13.80
2023-08-15T22:12:17.515Z,13.80
2023-08-15T22:14:45.142Z,13.70
2023-08-15T22:17:12.794Z,13.60
2023-08-15T22:19:40.459Z,13.60
2023-08-15T22:22:08.274Z,13.50
2023-08-15T22:24:35.764Z,13.50
2023-08-15T22:27:04.304Z,13.50
2023-08-15T22:29:31.863Z,13.40
2023-08-15T22:31:59.561Z,13.30
2023-08-15T22:34:27.136Z,13.30
2023-08-15T22:36:55.075Z,14.30
2023-08-15T22:39:22.686Z,13.20
2023-08-15T22:41:52.402Z,13.20
2023-08-15T22:44:19.999Z,13.20
2023-08-15T22:46:47.594Z,13.20
2023-08-15T22:49:15.113Z,13.20
2023-08-15T22:51:42.642Z,13.10
2023-08-15T22:54:10.706Z,13.20
2023-08-15T22:56:38.282Z,13.10
2023-08-15T22:59:05.860Z,13.10
2023-08-15T23:01:33.517Z,13.10
2023-08-15T23:04:01.195Z,13.00
2023-08-15T23:06:28.933Z,13.00
2023-08-15T23:08:56.505Z,12.90
2023-08-15T23:11:24.623Z,12.90
2023-08-15T23:13:52.133Z,12.90
2023-08-15T23:16:19.738Z,12.80
2023-08-15T23:18:47.382Z,12.80
2023-08-15T23:21:14.995Z,12.70
2023-08-15T23:23:44.234Z,12.80
2023-08-15T23:26:11.818Z,12.70
2023-08-15T23:28:39.374Z,12.70
2023-08-15T23:31:06.994Z,12.70
2023-08-15T23:33:34.573Z,12.70
2023-08-15T23:36:02.142Z,12.70
2023-08-15T23:38:30.353Z,12.70
2023-08-15T23:40:57.988Z,12.60
2023-08-15T23:43:25.534Z,12.60
2023-08-15T23:45:53.065Z,12.60
2023-08-15T23:48:21.823Z,12.60
2023-08-15T23:50:50.206Z,12.60
2023-08-15T23:53:17.836Z,12.60
2023-08-15T23:55:45.448Z,12.50
2023-08-15T23:58:13.004Z,12.60
